createdAt,value
2018-09-05T00:00:42.153Z,35.20
2018-09-05T00:03:10.589Z,35.10
2018-09-05T00:05:39.097Z,31.43
2018-09-05T00:08:07.598Z,31.57
2018-09-05T00:10:36.055Z,36.17
2018-09-05T00:13:04.910Z,35.77
2018-09-05T00:15:34.077Z,33.20
2018-09-05T00:18:03.438Z,38.93
2018-09-05T00:20:31.942Z,42.17
2018-09-05T00:23:00.412Z,41.77
2018-09-05T00:25:28.860Z,43.00
2018-09-05T00:27:57.300Z,41.87
2018-09-05T00:30:25.908Z,42.97
2018-09-05T00:32:54.409Z,43.77
2018-09-05T00:35:22.898Z,39.10
2018-09-05T00:37:51.344Z,42.50
2018-09-05T00:40:19.852Z,40.73
2018-09-05T00:42:48.669Z,40.40
2018-09-05T00:45:17.133Z,37.37
2018-09-05T00:47:45.582Z,38.27
2018-09-05T00:50:14.149Z,40.47
2018-09-05T00:52:42.632Z,42.70
2018-09-05T00:55:11.166Z,40.40
2018-09-05T00:57:39.567Z,38.93
2018-09-05T01:00:08.605Z,39.40
2018-09-05T01:02:37.046Z,39.10
2018-09-05T01:05:06.651Z,38.40
2018-09-05T01:07:36.091Z,40.67
2018-09-05T01:10:05.359Z,45.50
2018-09-05T01:12:33.879Z,37.73
2018-09-05T01:15:02.409Z,37.77
2018-09-05T01:17:30.813Z,39.50
2018-09-05T01:19:59.314Z,44.83
2018-09-05T01:22:27.836Z,41.03
2018-09-05T01:24:56.353Z,36.70
2018-09-05T01:27:25.135Z,41.33
2018-09-05T01:29:53.625Z,40.80
2018-09-05T01:32:22.064Z,41.70
2018-09-05T01:34:50.619Z,39.17
2018-09-05T01:37:19.097Z,41.87
2018-09-05T01:39:47.623Z,39.73
2018-09-05T01:42:16.113Z,38.50
2018-09-05T01:44:44.570Z,39.40
2018-09-05T01:47:13.082Z,39.30
2018-09-05T01:49:41.615Z,44.67
2018-09-05T01:52:10.050Z,38.73
2018-09-05T01:54:38.573Z,39.13
2018-09-05T01:57:07.038Z,41.17
2018-09-05T01:59:36.181Z,43.20
2018-09-05T02:02:04.956Z,38.97
2018-09-05T02:04:34.396Z,41.20
2018-09-05T02:07:03.072Z,42.30
2018-09-05T02:09:31.711Z,37.90
2018-09-05T02:12:00.179Z,37.17
2018-09-05T02:14:28.657Z,48.23
2018-09-05T02:16:57.074Z,37.90
2018-09-05T02:19:25.594Z,40.03
2018-09-05T02:21:54.048Z,39.87
2018-09-05T02:24:22.613Z,38.13
2018-09-05T02:26:51.032Z,36.83
2018-09-05T02:29:19.695Z,37.17
2018-09-05T02:31:48.123Z,43.00
2018-09-05T02:34:16.595Z,39.50
2018-09-05T02:36:45.076Z,41.67
2018-09-05T02:39:13.574Z,42.27
2018-09-05T02:41:42.348Z,46.53
2018-09-05T02:44:16.167Z,48.80
2018-09-05T02:46:44.595Z,47.97
2018-09-05T02:49:13.103Z,45.47
2018-09-05T02:51:41.566Z,45.40
2018-09-05T02:56:22.596Z,42.40
2018-09-05T02:58:51.453Z,44.93
2018-09-05T03:01:19.985Z,39.37
2018-09-05T03:03:48.511Z,41.47
2018-09-05T03:06:17.027Z,38.87
2018-09-05T03:08:45.611Z,42.20
2018-09-05T03:11:14.262Z,40.43
2018-09-05T03:13:42.732Z,37.57
2018-09-05T03:16:11.217Z,39.57
2018-09-05T03:18:40.592Z,40.17
2018-09-05T03:21:09.069Z,38.57
2018-09-05T03:23:37.718Z,42.70
2018-09-05T03:26:06.372Z,38.53
2018-09-05T03:28:36.164Z,40.60
2018-09-05T03:31:05.122Z,43.63
2018-09-05T03:33:33.963Z,41.03
2018-09-05T03:36:02.536Z,49.50
2018-09-05T03:38:31.071Z,39.80
2018-09-05T03:40:59.438Z,40.00
2018-09-05T03:43:27.918Z,44.60
2018-09-05T03:45:56.468Z,44.60
2018-09-05T03:48:24.906Z,47.73
2018-09-05T03:50:55.791Z,42.70
2018-09-05T03:53:24.540Z,45.40
2018-09-05T03:55:53.776Z,46.63
2018-09-05T03:58:22.157Z,47.50
2018-09-05T04:00:50.612Z,48.73
2018-09-05T04:03:20.114Z,52.63
2018-09-05T04:05:48.607Z,47.47
2018-09-05T04:08:17.071Z,46.70
2018-09-05T04:10:45.477Z,46.93
2018-09-05T04:13:14.000Z,43.90
2018-09-05T04:15:42.428Z,46.87
2018-09-05T04:18:13.935Z,49.17
2018-09-05T04:20:42.662Z,57.20
2018-09-05T04:23:11.143Z,47.00
2018-09-05T04:25:39.576Z,48.30
2018-09-05T04:28:08.114Z,47.43
2018-09-05T04:30:36.589Z,43.80
2018-09-05T04:33:06.204Z,41.93
2018-09-05T04:35:35.498Z,43.13
2018-09-05T04:38:04.036Z,44.53
2018-09-05T04:40:32.432Z,41.17
2018-09-05T04:43:01.961Z,41.90
2018-09-05T04:45:30.478Z,43.87
2018-09-05T04:47:59.009Z,46.43
2018-09-05T04:50:27.522Z,45.80
2018-09-05T04:52:56.029Z,41.80
2018-09-05T04:55:24.479Z,42.40
2018-09-05T04:57:53.000Z,41.57
2018-09-05T05:00:21.513Z,43.87
2018-09-05T05:02:50.037Z,41.77
2018-09-05T05:05:18.593Z,42.00
2018-09-05T05:07:47.313Z,40.33
2018-09-05T05:10:15.754Z,38.87
2018-09-05T05:12:44.285Z,44.40
2018-09-05T05:15:12.695Z,42.07
2018-09-05T05:17:41.486Z,42.10
2018-09-05T05:20:09.859Z,40.80
2018-09-05T05:22:38.451Z,40.27
2018-09-05T05:25:06.946Z,40.10
2018-09-05T05:27:36.277Z,39.47
2018-09-05T05:30:05.094Z,36.30
2018-09-05T05:32:35.335Z,38.03
2018-09-05T05:35:04.097Z,36.47
2018-09-05T05:37:32.607Z,40.57
2018-09-05T05:40:05.892Z,39.83
2018-09-05T05:42:37.309Z,36.87
2018-09-05T05:45:06.764Z,40.03
2018-09-05T05:47:35.999Z,39.03
2018-09-05T05:50:05.060Z,35.33
2018-09-05T05:52:34.077Z,34.37
2018-09-05T05:55:03.278Z,34.20
2018-09-05T05:57:32.062Z,37.30
2018-09-05T06:00:00.468Z,35.37
2018-09-05T06:02:28.999Z,38.87
2018-09-05T06:04:57.462Z,43.40
2018-09-05T06:07:26.056Z,40.83
2018-09-05T06:09:54.520Z,34.00
2018-09-05T06:12:23.077Z,33.20
2018-09-05T06:14:51.483Z,33.73
2018-09-05T06:17:20.235Z,31.07
2018-09-05T06:19:48.689Z,31.00
2018-09-05T06:22:18.172Z,32.30
2018-09-05T06:24:46.658Z,31.37
2018-09-05T06:27:15.129Z,41.17
2018-09-05T06:29:43.495Z,32.20
2018-09-05T06:32:12.017Z,30.50
2018-09-05T06:34:40.466Z,33.40
2018-09-05T06:37:08.983Z,45.40
2018-09-05T06:39:37.402Z,45.23
2018-09-05T06:42:06.414Z,41.63
2018-09-05T06:44:35.151Z,37.23
2018-09-05T06:47:03.611Z,36.20
2018-09-05T06:49:32.160Z,40.50
2018-09-05T06:52:01.774Z,40.80
2018-09-05T06:54:30.260Z,36.50
2018-09-05T06:56:58.809Z,36.80
2018-09-05T06:59:27.340Z,34.87
2018-09-05T07:01:56.911Z,35.53
2018-09-05T07:04:25.415Z,35.00
2018-09-05T07:06:54.124Z,41.03
2018-09-05T07:09:22.727Z,38.93
2018-09-05T07:11:52.261Z,34.23
2018-09-05T07:14:20.688Z,35.97
2018-09-05T07:16:49.202Z,39.27
2018-09-05T07:19:17.737Z,41.17
2018-09-05T07:21:46.344Z,39.50
2018-09-05T07:24:14.813Z,40.00
2018-09-05T07:26:43.243Z,42.23
2018-09-05T07:29:11.643Z,41.50
2018-09-05T07:31:40.207Z,39.00
2018-09-05T07:35:11.942Z,44.17
2018-09-05T07:37:40.546Z,41.60
2018-09-05T07:40:08.954Z,45.13
2018-09-05T07:42:37.433Z,45.37
2018-09-05T07:45:06.430Z,42.07
2018-09-05T07:47:35.231Z,46.87
2018-09-05T07:50:04.568Z,48.97
2018-09-05T07:52:33.285Z,44.83
2018-09-05T07:55:02.103Z,46.00
2018-09-05T07:57:30.633Z,46.50
2018-09-05T07:59:59.125Z,43.93
2018-09-05T08:02:28.718Z,41.43
2018-09-05T08:04:57.198Z,47.30
2018-09-05T08:07:25.683Z,41.30
2018-09-05T08:09:54.101Z,46.10
2018-09-05T08:12:22.789Z,48.00
2018-09-05T08:14:51.258Z,45.13
2018-09-05T08:17:19.757Z,46.43
2018-09-05T08:19:48.328Z,46.33
2018-09-05T08:22:16.808Z,44.07
2018-09-05T08:24:45.315Z,44.30
2018-09-05T08:27:13.774Z,41.03
2018-09-05T08:29:42.296Z,41.37
2018-09-05T08:32:10.764Z,45.20
2018-09-05T08:34:40.263Z,49.80
2018-09-05T08:37:09.141Z,42.93
2018-09-05T08:39:38.484Z,46.90
2018-09-05T08:42:07.349Z,49.13
2018-09-05T08:44:36.730Z,44.63
2018-09-05T08:47:05.824Z,53.57
2018-09-05T08:49:35.179Z,50.60
2018-09-05T08:52:04.492Z,54.73
2018-09-05T08:54:32.949Z,51.60
2018-09-05T08:57:02.361Z,50.57
2018-09-05T08:59:31.139Z,50.47
2018-09-05T09:01:59.563Z,49.20
2018-09-05T09:04:28.069Z,52.37
2018-09-05T09:06:56.770Z,52.37
2018-09-05T09:09:25.325Z,51.50
2018-09-05T09:11:53.765Z,50.27
2018-09-05T09:14:22.746Z,53.63
2018-09-05T09:16:51.239Z,55.17
2018-09-05T09:19:20.522Z,53.80
2018-09-05T09:21:49.102Z,50.87
2018-09-05T09:24:17.620Z,51.53
2018-09-05T09:26:46.422Z,47.50
2018-09-05T09:29:14.803Z,50.87
2018-09-05T09:31:43.216Z,47.40
2018-09-05T09:36:43.991Z,49.80
2018-09-05T09:39:12.480Z,49.93
2018-09-05T09:41:41.275Z,53.70
2018-09-05T09:44:09.828Z,47.93
2018-09-05T09:46:38.324Z,52.37
2018-09-05T09:49:07.079Z,47.47
2018-09-05T09:51:36.134Z,52.13
2018-09-05T09:54:05.576Z,52.60
2018-09-05T09:56:34.294Z,51.23
2018-09-05T09:59:03.319Z,45.07
2018-09-05T10:01:37.043Z,49.23
2018-09-05T10:04:11.995Z,51.10
2018-09-05T10:06:42.024Z,44.83
2018-09-05T10:09:16.119Z,44.80
2018-09-05T10:11:49.999Z,45.90
2018-09-05T10:14:24.824Z,44.77
2018-09-05T10:16:58.898Z,44.23
2018-09-05T10:19:28.314Z,43.73
2018-09-05T10:21:57.819Z,50.40
2018-09-05T10:24:57.696Z,41.47
2018-09-05T10:27:27.129Z,42.40
2018-09-05T10:29:56.113Z,44.43
2018-09-05T10:32:26.019Z,41.23
2018-09-05T10:34:55.304Z,39.97
2018-09-05T10:37:24.114Z,38.43
2018-09-05T10:39:52.517Z,42.57
2018-09-05T10:42:21.400Z,43.90
2018-09-05T10:44:49.821Z,42.17
2018-09-05T10:47:18.311Z,42.03
2018-09-05T10:49:46.728Z,41.63
2018-09-05T10:52:15.255Z,37.17
2018-09-05T10:54:43.713Z,41.53
2018-09-05T10:57:12.254Z,39.70
2018-09-05T10:59:40.678Z,38.57
2018-09-05T11:02:10.188Z,37.40
2018-09-05T11:04:38.651Z,35.17
2018-09-05T11:07:07.171Z,37.90
2018-09-05T11:09:36.197Z,31.70
2018-09-05T11:12:06.984Z,31.67
2018-09-05T11:14:36.282Z,35.10
2018-09-05T11:17:05.492Z,38.33
2018-09-05T11:19:34.902Z,39.07
2018-09-05T11:22:05.052Z,39.57
2018-09-05T11:24:33.871Z,37.93
2018-09-05T11:27:02.388Z,35.13
2018-09-05T11:29:30.819Z,37.93
2018-09-05T11:32:00.530Z,36.70
2018-09-05T11:34:28.990Z,34.73
2018-09-05T11:36:57.592Z,32.43
2018-09-05T11:39:26.155Z,38.10
2018-09-05T11:41:54.685Z,32.97
2018-09-05T11:44:23.100Z,35.87
2018-09-05T11:46:51.665Z,34.60
2018-09-05T11:49:20.096Z,32.40
2018-09-05T11:51:49.232Z,37.00
2018-09-05T11:54:17.625Z,34.70
2018-09-05T11:56:46.069Z,34.80
2018-09-05T11:59:14.546Z,34.10
2018-09-05T12:01:43.104Z,32.43
2018-09-05T12:04:11.517Z,33.63
2018-09-05T12:06:39.969Z,34.47
2018-09-05T12:09:10.997Z,34.43
2018-09-05T12:11:39.671Z,29.20
2018-09-05T12:14:09.058Z,32.73
2018-09-05T12:16:38.009Z,32.37
2018-09-05T12:19:07.223Z,43.47
2018-09-05T12:21:36.363Z,33.07
2018-09-05T12:24:05.932Z,36.37
2018-09-05T12:26:34.754Z,30.60
2018-09-05T12:29:06.117Z,29.43
2018-09-05T12:31:35.196Z,31.33
2018-09-05T12:34:04.395Z,33.17
2018-09-05T12:36:32.956Z,32.13
2018-09-05T12:39:01.388Z,28.93
2018-09-05T12:41:29.794Z,33.57
2018-09-05T12:43:58.248Z,29.50
2018-09-05T12:46:26.805Z,33.43
2018-09-05T12:48:55.320Z,31.50
2018-09-05T12:51:23.807Z,32.50
2018-09-05T12:53:52.250Z,31.20
2018-09-05T12:56:20.679Z,32.00
2018-09-05T12:58:49.167Z,30.50
2018-09-05T13:01:17.744Z,30.33
2018-09-05T13:03:46.381Z,35.57
2018-09-05T13:06:14.911Z,29.23
2018-09-05T13:08:43.330Z,32.70
2018-09-05T13:11:11.829Z,30.50
2018-09-05T13:13:40.280Z,27.87
2018-09-05T13:16:08.832Z,29.37
2018-09-05T13:18:37.328Z,28.73
2018-09-05T13:21:06.663Z,27.47
2018-09-05T13:23:35.846Z,28.17
2018-09-05T13:26:04.467Z,28.57
2018-09-05T13:28:33.010Z,30.57
2018-09-05T13:31:01.506Z,27.37
2018-09-05T13:33:30.011Z,28.47
2018-09-05T13:35:58.414Z,28.20
2018-09-05T13:38:27.802Z,25.50
2018-09-05T13:40:56.351Z,24.60
2018-09-05T13:43:24.876Z,25.30
2018-09-05T13:45:53.376Z,24.77
2018-09-05T13:48:21.829Z,27.83
2018-09-05T13:50:50.349Z,25.13
2018-09-05T13:53:18.847Z,23.97
2018-09-05T13:55:47.371Z,24.20
2018-09-05T13:58:15.779Z,24.80
2018-09-05T14:00:44.279Z,22.70
2018-09-05T14:03:12.740Z,23.70
2018-09-05T14:05:41.331Z,27.37
2018-09-05T14:08:09.751Z,24.83
2018-09-05T14:10:38.178Z,23.83
2018-09-05T14:13:06.704Z,25.00
2018-09-05T14:15:35.814Z,24.27
2018-09-05T14:18:04.463Z,23.17
2018-09-05T14:20:33.092Z,23.33
2018-09-05T14:23:01.727Z,23.00
2018-09-05T14:25:30.262Z,21.17
2018-09-05T14:27:58.758Z,23.03
2018-09-05T14:30:27.363Z,24.00
2018-09-05T14:32:55.784Z,23.00
2018-09-05T14:35:24.394Z,23.27
2018-09-05T14:37:53.283Z,23.87
2018-09-05T14:40:21.840Z,22.80
2018-09-05T14:42:50.319Z,21.57
2018-09-05T14:45:18.761Z,22.43
2018-09-05T14:47:47.463Z,24.00
2018-09-05T14:50:15.896Z,22.20
2018-09-05T14:52:44.358Z,21.50
2018-09-05T14:55:12.829Z,20.93
2018-09-05T14:57:41.293Z,21.97
2018-09-05T15:00:09.830Z,24.37
2018-09-05T15:02:38.343Z,19.93
2018-09-05T15:05:07.410Z,21.13
2018-09-05T15:07:36.230Z,21.23
2018-09-05T15:10:06.026Z,19.53
2018-09-05T15:12:34.506Z,21.10
2018-09-05T15:15:03.858Z,23.90
2018-09-05T15:17:32.431Z,21.57
2018-09-05T15:20:01.078Z,21.73
2018-09-05T15:22:29.480Z,20.73
2018-09-05T15:24:58.043Z,19.53
2018-09-05T15:27:26.782Z,20.00
2018-09-05T15:29:55.254Z,19.10
2018-09-05T15:32:23.843Z,20.50
2018-09-05T15:34:52.563Z,20.87
2018-09-05T15:37:21.044Z,22.70
2018-09-05T15:39:49.471Z,19.57
2018-09-05T15:42:17.938Z,20.60
2018-09-05T15:44:46.475Z,18.83
2018-09-05T15:47:14.973Z,19.27
2018-09-05T15:49:43.766Z,19.20
2018-09-05T15:52:12.188Z,20.57
2018-09-05T15:54:40.702Z,18.90
2018-09-05T15:57:09.160Z,19.17
2018-09-05T15:59:37.576Z,21.37
2018-09-05T16:02:06.993Z,18.23
2018-09-05T16:04:36.157Z,18.90
2018-09-05T16:07:05.381Z,19.13
2018-09-05T16:09:34.706Z,19.43
2018-09-05T16:12:03.135Z,19.13
2018-09-05T16:14:31.619Z,19.57
2018-09-05T16:17:00.108Z,19.87
2018-09-05T16:19:28.666Z,18.60
2018-09-05T16:21:57.231Z,18.33
2018-09-05T16:24:25.957Z,19.67
2018-09-05T16:26:54.511Z,20.70
2018-09-05T16:29:23.048Z,18.97
2018-09-05T16:31:51.472Z,18.73
2018-09-05T16:34:19.937Z,18.07
2018-09-05T16:36:48.362Z,17.67
2018-09-05T16:39:16.809Z,20.33
2018-09-05T16:41:45.242Z,17.57
2018-09-05T16:44:13.675Z,19.50
2018-09-05T16:46:42.087Z,19.67
2018-09-05T16:49:10.595Z,18.67
2018-09-05T16:51:39.017Z,19.67
2018-09-05T16:54:08.469Z,19.50
2018-09-05T16:56:37.279Z,22.13
2018-09-05T16:59:06.630Z,16.97
2018-09-05T17:01:35.914Z,17.77
2018-09-05T17:04:04.668Z,17.67
2018-09-05T17:06:33.035Z,18.60
2018-09-05T17:09:01.559Z,19.00
2018-09-05T17:11:29.928Z,20.33
2018-09-05T17:13:58.378Z,19.93
2018-09-05T17:16:26.745Z,20.27
2018-09-05T17:18:55.259Z,20.43
2018-09-05T17:21:23.737Z,19.17
2018-09-05T17:23:52.256Z,21.97
2018-09-05T17:26:20.656Z,27.57
2018-09-05T17:28:49.169Z,21.00
2018-09-05T17:31:17.583Z,23.20
2018-09-05T17:33:46.092Z,21.77
2018-09-05T17:36:14.805Z,21.27
2018-09-05T17:38:43.340Z,22.53
2018-09-05T17:41:11.767Z,21.87
2018-09-05T17:43:40.232Z,21.77
2018-09-05T17:46:08.728Z,21.97
2018-09-05T17:48:37.233Z,21.43
2018-09-05T17:51:06.563Z,23.77
2018-09-05T17:53:35.505Z,21.83
2018-09-05T17:56:05.103Z,30.37
2018-09-05T17:58:34.610Z,25.80
2018-09-05T18:01:05.485Z,25.07
2018-09-05T18:03:34.767Z,24.97
2018-09-05T18:06:03.209Z,25.30
2018-09-05T18:08:31.695Z,24.87
2018-09-05T18:11:00.157Z,25.10
2018-09-05T18:13:28.673Z,28.07
2018-09-05T18:15:57.182Z,23.93
2018-09-05T18:18:25.817Z,22.73
2018-09-05T18:20:54.457Z,23.33
2018-09-05T18:23:22.967Z,26.80
2018-09-05T18:25:51.391Z,25.77
2018-09-05T18:28:19.903Z,24.40
2018-09-05T18:30:48.354Z,25.40
2018-09-05T18:33:16.832Z,28.00
2018-09-05T18:35:45.320Z,26.07
2018-09-05T18:38:13.812Z,25.17
2018-09-05T18:40:42.365Z,26.37
2018-09-05T18:43:10.850Z,25.63
2018-09-05T18:45:39.317Z,26.90
2018-09-05T18:48:07.958Z,28.47
2018-09-05T18:50:37.278Z,31.80
2018-09-05T18:53:11.930Z,30.63
2018-09-05T18:55:41.554Z,31.97
2018-09-05T18:58:10.013Z,29.53
2018-09-05T19:00:38.584Z,30.73
2018-09-05T19:03:09.322Z,32.30
2018-09-05T19:05:37.806Z,32.50
2018-09-05T19:08:07.599Z,32.90
2018-09-05T19:10:36.389Z,32.93
2018-09-05T19:13:05.568Z,35.43
2018-09-05T19:15:34.706Z,32.17
2018-09-05T19:18:03.765Z,33.30
2018-09-05T19:20:32.409Z,31.80
2018-09-05T19:23:00.962Z,34.03
2018-09-05T19:25:30.116Z,31.57
2018-09-05T19:27:58.631Z,34.80
2018-09-05T19:30:27.041Z,33.97
2018-09-05T19:32:56.047Z,35.70
2018-09-05T19:35:24.988Z,37.67
2018-09-05T19:37:53.600Z,36.63
2018-09-05T19:40:22.043Z,36.03
2018-09-05T19:42:50.471Z,35.00
2018-09-05T19:45:18.908Z,35.03
2018-09-05T19:47:47.442Z,35.13
2018-09-05T19:50:15.867Z,33.40
2018-09-05T19:52:44.442Z,36.73
2018-09-05T19:55:12.886Z,38.77
2018-09-05T19:57:41.398Z,37.23
2018-09-05T20:00:09.866Z,38.80
2018-09-05T20:02:38.291Z,34.20
2018-09-05T20:05:06.845Z,40.63
2018-09-05T20:07:35.713Z,37.20
2018-09-05T20:10:04.227Z,36.40
2018-09-05T20:12:32.750Z,38.17
2018-09-05T20:15:01.276Z,38.23
2018-09-05T20:17:29.780Z,38.17
2018-09-05T20:19:58.175Z,35.00
2018-09-05T20:22:26.864Z,38.80
2018-09-05T20:24:55.327Z,39.43
2018-09-05T20:27:23.888Z,38.63
2018-09-05T20:29:52.351Z,36.23
2018-09-05T20:32:20.801Z,38.13
2018-09-05T20:34:49.210Z,37.70
2018-09-05T20:37:17.757Z,39.13
2018-09-05T20:39:46.164Z,42.23
2018-09-05T20:42:14.602Z,42.03
2018-09-05T20:44:43.002Z,43.17
2018-09-05T20:47:11.530Z,38.93
2018-09-05T20:49:39.987Z,39.20
2018-09-05T20:52:09.477Z,38.53
2018-09-05T20:54:38.129Z,40.13
2018-09-05T20:57:06.816Z,40.10
2018-09-05T20:59:35.992Z,43.00
2018-09-05T21:02:06.565Z,39.73
2018-09-05T21:04:35.703Z,40.23
2018-09-05T21:07:04.247Z,41.10
2018-09-05T21:09:32.721Z,40.97
2018-09-05T21:12:02.172Z,40.50
2018-09-05T21:14:30.650Z,39.50
2018-09-05T21:16:59.156Z,40.57
2018-09-05T21:19:27.579Z,40.67
2018-09-05T21:21:57.150Z,40.10
2018-09-05T21:24:25.617Z,40.03
2018-09-05T21:26:54.084Z,39.13
2018-09-05T21:29:22.499Z,42.53
2018-09-05T21:31:52.030Z,38.30
2018-09-05T21:34:20.501Z,40.20
2018-09-05T21:36:48.962Z,44.90
2018-09-05T21:39:17.499Z,40.00
2018-09-05T21:41:46.233Z,41.60
2018-09-05T21:44:14.705Z,43.70
2018-09-05T21:46:43.219Z,40.13
2018-09-05T21:49:11.682Z,41.00
2018-09-05T21:51:40.136Z,42.53
2018-09-05T21:54:08.987Z,45.17
2018-09-05T21:56:37.549Z,45.20
2018-09-05T21:59:06.618Z,38.37
2018-09-05T22:01:35.167Z,40.63
2018-09-05T22:04:03.914Z,43.30
2018-09-05T22:06:32.413Z,40.17
2018-09-05T22:09:00.798Z,41.80
2018-09-05T22:11:29.431Z,42.47
2018-09-05T22:13:58.071Z,43.33
2018-09-05T22:16:26.669Z,42.90
2018-09-05T22:18:55.183Z,42.03
2018-09-05T22:21:23.776Z,38.93
2018-09-05T22:23:52.462Z,40.20
2018-09-05T22:26:21.112Z,41.80
2018-09-05T22:28:49.582Z,42.57
2018-09-05T22:31:18.141Z,41.27
2018-09-05T22:33:46.792Z,45.90
2018-09-05T22:36:15.363Z,43.10
2018-09-05T22:38:44.230Z,42.63
2018-09-05T22:41:12.690Z,43.10
2018-09-05T22:43:52.560Z,40.33
2018-09-05T22:46:32.419Z,42.33
2018-09-05T22:49:53.953Z,39.00
2018-09-05T22:54:46.805Z,38.60
2018-09-05T22:58:43.869Z,42.23
2018-09-05T23:01:20.021Z,40.53
2018-09-05T23:03:58.438Z,43.60
2018-09-05T23:07:07.270Z,42.87
2018-09-05T23:09:47.186Z,41.50
2018-09-05T23:12:27.985Z,40.53
2018-09-05T23:15:07.933Z,46.87
2018-09-05T23:19:54.317Z,39.17
2018-09-05T23:22:23.078Z,41.80
2018-09-05T23:24:51.591Z,45.03
2018-09-05T23:27:20.321Z,44.10
2018-09-05T23:29:48.876Z,44.03
2018-09-05T23:32:17.317Z,46.20
2018-09-05T23:34:45.840Z,45.30
2018-09-05T23:37:14.280Z,43.93
2018-09-05T23:39:42.837Z,44.13
2018-09-05T23:42:11.226Z,44.50
2018-09-05T23:44:39.662Z,44.00
2018-09-05T23:47:08.084Z,44.90
2018-09-05T23:49:36.589Z,44.40
2018-09-05T23:52:06.413Z,43.97
2018-09-05T23:54:34.925Z,46.60
2018-09-05T23:57:03.436Z,44.00
2018-09-05T23:59:31.900Z,45.53
